sensor_id;sensor_type;location;lat;lon;timestamp;pressure;altitude;pressure_sealevel;temperature;humidity
56040;BME280;43937;41.366;2.072;2023-04-29T00:00:16;100623.69;;;20.59;60.47
56040;BME280;43937;41.366;2.072;2023-04-29T00:02:42;100609.47;;;20.56;60.33
56040;BME280;43937;41.366;2.072;2023-04-29T00:05:08;100613.81;;;20.52;60.76
56040;BME280;43937;41.366;2.072;2023-04-29T00:07:33;100576.34;;;20.38;60.68
56040;BME280;43937;41.366;2.072;2023-04-29T00:09:59;100598.41;;;20.56;60.60
56040;BME280;43937;41.366;2.072;2023-04-29T00:12:24;100590.75;;;20.58;60.61
56040;BME280;43937;41.366;2.072;2023-04-29T00:14:50;100591.31;;;20.60;60.86
56040;BME280;43937;41.366;2.072;2023-04-29T00:17:15;100592.88;;;20.56;60.35
56040;BME280;43937;41.366;2.072;2023-04-29T00:19:41;100587.97;;;20.58;60.40
56040;BME280;43937;41.366;2.072;2023-04-29T00:22:07;100584.47;;;20.63;60.21
56040;BME280;43937;41.366;2.072;2023-04-29T00:24:33;100573.69;;;20.61;60.47
56040;BME280;43937;41.366;2.072;2023-04-29T00:26:58;100574.84;;;20.53;60.30
56040;BME280;43937;41.366;2.072;2023-04-29T00:30:08;100535.31;;;20.23;60.69
56040;BME280;43937;41.366;2.072;2023-04-29T00:32:33;100579.13;;;20.49;60.37
56040;BME280;43937;41.366;2.072;2023-04-29T00:34:59;100552.53;;;20.36;60.20
56040;BME280;43937;41.366;2.072;2023-04-29T00:37:25;100542.13;;;20.20;60.13
56040;BME280;43937;41.366;2.072;2023-04-29T00:39:51;100562.00;;;20.29;60.02
56040;BME280;43937;41.366;2.072;2023-04-29T00:42:17;100562.25;;;20.39;59.65
56040;BME280;43937;41.366;2.072;2023-04-29T00:44:42;100564.56;;;20.42;59.57
56040;BME280;43937;41.366;2.072;2023-04-29T00:47:07;100558.66;;;20.39;59.54
56040;BME280;43937;41.366;2.072;2023-04-29T00:49:37;100514.28;;;20.22;59.09
56040;BME280;43937;41.366;2.072;2023-04-29T00:52:10;100524.50;;;20.33;59.13
56040;BME280;43937;41.366;2.072;2023-04-29T00:54:36;100551.59;;;20.43;59.23
56040;BME280;43937;41.366;2.072;2023-04-29T00:57:03;100544.63;;;20.40;59.09
56040;BME280;43937;41.366;2.072;2023-04-29T00:59:31;100536.44;;;20.33;58.97
56040;BME280;43937;41.366;2.072;2023-04-29T01:01:59;100530.66;;;20.35;58.87
56040;BME280;43937;41.366;2.072;2023-04-29T01:04:25;100515.25;;;20.39;58.63
56040;BME280;43937;41.366;2.072;2023-04-29T01:07:00;100519.97;;;20.50;58.35
56040;BME280;43937;41.366;2.072;2023-04-29T01:09:48;100509.03;;;20.44;58.10
56040;BME280;43937;41.366;2.072;2023-04-29T01:15:22;100493.53;;;20.43;57.18
56040;BME280;43937;41.366;2.072;2023-04-29T01:20:25;100492.19;;;20.45;56.93
56040;BME280;43937;41.366;2.072;2023-04-29T01:22:50;100496.66;;;20.46;57.37
56040;BME280;43937;41.366;2.072;2023-04-29T01:25:16;100462.59;;;20.22;57.12
56040;BME280;43937;41.366;2.072;2023-04-29T01:28:13;100476.47;;;20.46;57.37
56040;BME280;43937;41.366;2.072;2023-04-29T01:31:05;100480.19;;;20.40;57.69
56040;BME280;43937;41.366;2.072;2023-04-29T01:42:23;100449.94;;;20.03;58.73
56040;BME280;43937;41.366;2.072;2023-04-29T01:44:52;100450.41;;;20.00;59.19
56040;BME280;43937;41.366;2.072;2023-04-29T01:47:19;100452.47;;;20.04;58.57
56040;BME280;43937;41.366;2.072;2023-04-29T01:49:45;100447.88;;;19.98;58.64
56040;BME280;43937;41.366;2.072;2023-04-29T01:52:11;100432.13;;;19.87;58.24
56040;BME280;43937;41.366;2.072;2023-04-29T01:54:37;100431.00;;;20.06;58.30
56040;BME280;43937;41.366;2.072;2023-04-29T01:57:03;100427.97;;;20.08;57.78
56040;BME280;43937;41.366;2.072;2023-04-29T01:59:29;100428.69;;;20.03;57.67
56040;BME280;43937;41.366;2.072;2023-04-29T02:01:54;100423.53;;;20.07;57.41
56040;BME280;43937;41.366;2.072;2023-04-29T02:06:31;100390.00;;;19.92;56.49
56040;BME280;43937;41.366;2.072;2023-04-29T02:08:57;100416.69;;;20.09;56.35
56040;BME280;43937;41.366;2.072;2023-04-29T02:11:23;100423.56;;;20.19;55.88
56040;BME280;43937;41.366;2.072;2023-04-29T02:13:49;100420.06;;;20.23;55.92
56040;BME280;43937;41.366;2.072;2023-04-29T02:16:15;100420.53;;;20.20;55.96
56040;BME280;43937;41.366;2.072;2023-04-29T02:18:41;100419.22;;;20.23;56.16
56040;BME280;43937;41.366;2.072;2023-04-29T02:21:07;100427.03;;;20.14;56.12
56040;BME280;43937;41.366;2.072;2023-04-29T02:23:34;100418.88;;;20.19;55.99
56040;BME280;43937;41.366;2.072;2023-04-29T02:25:59;100398.03;;;19.93;55.61
56040;BME280;43937;41.366;2.072;2023-04-29T02:28:25;100429.41;;;20.10;55.80
56040;BME280;43937;41.366;2.072;2023-04-29T02:30:51;100428.22;;;20.06;56.08
56040;BME280;43937;41.366;2.072;2023-04-29T02:33:16;100422.81;;;20.11;55.87
56040;BME280;43937;41.366;2.072;2023-04-29T02:35:43;100407.16;;;19.82;56.08
56040;BME280;43937;41.366;2.072;2023-04-29T02:38:09;100427.22;;;19.89;56.36
56040;BME280;43937;41.366;2.072;2023-04-29T02:40:40;100428.38;;;19.81;56.42
56040;BME280;43937;41.366;2.072;2023-04-29T02:43:06;100419.09;;;19.76;56.08
56040;BME280;43937;41.366;2.072;2023-04-29T02:45:31;100398.84;;;19.63;56.22
56040;BME280;43937;41.366;2.072;2023-04-29T02:47:57;100424.38;;;19.65;56.26
56040;BME280;43937;41.366;2.072;2023-04-29T02:50:22;100408.22;;;19.62;56.25
56040;BME280;43937;41.366;2.072;2023-04-29T02:52:49;100350.88;;;19.34;56.08
56040;BME280;43937;41.366;2.072;2023-04-29T02:55:15;100397.78;;;19.83;56.28
56040;BME280;43937;41.366;2.072;2023-04-29T02:57:41;100377.56;;;19.71;55.37
56040;BME280;43937;41.366;2.072;2023-04-29T03:00:07;100384.31;;;19.86;55.61
56040;BME280;43937;41.366;2.072;2023-04-29T03:02:34;100375.09;;;19.93;55.27
56040;BME280;43937;41.366;2.072;2023-04-29T03:05:00;100392.28;;;19.95;55.15
56040;BME280;43937;41.366;2.072;2023-04-29T03:07:25;100421.22;;;19.92;54.75
56040;BME280;43937;41.366;2.072;2023-04-29T03:09:52;100391.78;;;19.86;54.43
56040;BME280;43937;41.366;2.072;2023-04-29T03:12:18;100408.59;;;19.96;54.08
56040;BME280;43937;41.366;2.072;2023-04-29T03:14:44;100440.34;;;20.05;53.62
56040;BME280;43937;41.366;2.072;2023-04-29T03:17:10;100414.97;;;19.97;54.06
56040;BME280;43937;41.366;2.072;2023-04-29T03:19:36;100429.03;;;19.95;53.86
56040;BME280;43937;41.366;2.072;2023-04-29T03:22:01;100417.34;;;19.93;53.48
56040;BME280;43937;41.366;2.072;2023-04-29T03:24:27;100426.88;;;19.97;53.65
56040;BME280;43937;41.366;2.072;2023-04-29T03:28:09;100435.38;;;19.96;53.28
56040;BME280;43937;41.366;2.072;2023-04-29T03:30:35;100442.28;;;20.17;52.91
56040;BME280;43937;41.366;2.072;2023-04-29T03:34:31;100438.81;;;20.09;52.23
56040;BME280;43937;41.366;2.072;2023-04-29T03:36:57;100440.00;;;20.13;52.52
56040;BME280;43937;41.366;2.072;2023-04-29T03:39:23;100430.03;;;20.12;53.25
56040;BME280;43937;41.366;2.072;2023-04-29T03:41:48;100420.88;;;20.00;53.83
56040;BME280;43937;41.366;2.072;2023-04-29T03:44:14;100409.84;;;20.00;53.87
56040;BME280;43937;41.366;2.072;2023-04-29T03:47:07;100414.50;;;20.00;53.42
56040;BME280;43937;41.366;2.072;2023-04-29T03:49:33;100403.84;;;20.03;52.76
56040;BME280;43937;41.366;2.072;2023-04-29T03:51:58;100401.66;;;20.05;52.87
56040;BME280;43937;41.366;2.072;2023-04-29T03:54:24;100412.72;;;20.17;52.62
56040;BME280;43937;41.366;2.072;2023-04-29T03:56:49;100410.22;;;20.16;53.05
56040;BME280;43937;41.366;2.072;2023-04-29T03:59:15;100415.75;;;20.16;53.09
56040;BME280;43937;41.366;2.072;2023-04-29T04:01:40;100410.31;;;19.97;53.42
56040;BME280;43937;41.366;2.072;2023-04-29T04:04:06;100433.50;;;20.08;53.58
56040;BME280;43937;41.366;2.072;2023-04-29T04:06:31;100412.94;;;19.92;53.97
56040;BME280;43937;41.366;2.072;2023-04-29T04:08:57;100430.69;;;19.96;54.02
56040;BME280;43937;41.366;2.072;2023-04-29T04:11:22;100423.25;;;19.85;54.10
56040;BME280;43937;41.366;2.072;2023-04-29T04:13:47;100412.38;;;19.72;53.91
56040;BME280;43937;41.366;2.072;2023-04-29T04:16:14;100411.28;;;19.73;54.48
56040;BME280;43937;41.366;2.072;2023-04-29T04:18:39;100385.78;;;19.59;54.31
56040;BME280;43937;41.366;2.072;2023-04-29T04:21:09;100409.16;;;19.75;54.15
56040;BME280;43937;41.366;2.072;2023-04-29T04:23:35;100393.19;;;19.77;53.60
56040;BME280;43937;41.366;2.072;2023-04-29T04:26:00;100393.66;;;19.74;53.05
56040;BME280;43937;41.366;2.072;2023-04-29T04:28:26;100392.06;;;19.66;52.79
56040;BME280;43937;41.366;2.072;2023-04-29T04:30:52;100397.31;;;19.86;52.43
56040;BME280;43937;41.366;2.072;2023-04-29T04:33:17;100403.22;;;20.01;51.73
56040;BME280;43937;41.366;2.072;2023-04-29T04:35:43;100407.19;;;20.05;51.25
56040;BME280;43937;41.366;2.072;2023-04-29T04:38:08;100362.97;;;19.82;51.25
56040;BME280;43937;41.366;2.072;2023-04-29T04:40:36;100416.59;;;20.16;51.46
56040;BME280;43937;41.366;2.072;2023-04-29T04:43:01;100367.28;;;19.89;51.29
56040;BME280;43937;41.366;2.072;2023-04-29T04:45:27;100401.88;;;19.92;51.67
56040;BME280;43937;41.366;2.072;2023-04-29T04:47:54;100398.84;;;19.94;51.38
56040;BME280;43937;41.366;2.072;2023-04-29T04:50:19;100393.59;;;19.92;51.34
56040;BME280;43937;41.366;2.072;2023-04-29T04:52:45;100411.25;;;19.91;50.90
56040;BME280;43937;41.366;2.072;2023-04-29T04:55:10;100417.13;;;19.95;50.41
56040;BME280;43937;41.366;2.072;2023-04-29T04:57:36;100403.91;;;19.97;50.40
56040;BME280;43937;41.366;2.072;2023-04-29T05:00:01;100412.81;;;19.99;50.67
56040;BME280;43937;41.366;2.072;2023-04-29T05:02:28;100403.06;;;19.96;50.88
56040;BME280;43937;41.366;2.072;2023-04-29T05:04:53;100414.28;;;20.01;50.66
56040;BME280;43937;41.366;2.072;2023-04-29T05:07:19;100420.00;;;20.00;50.89
56040;BME280;43937;41.366;2.072;2023-04-29T05:09:44;100426.28;;;20.07;50.88
56040;BME280;43937;41.366;2.072;2023-04-29T05:12:10;100426.41;;;20.12;50.61
56040;BME280;43937;41.366;2.072;2023-04-29T05:14:35;100417.31;;;20.23;50.52
56040;BME280;43937;41.366;2.072;2023-04-29T05:17:01;100439.19;;;20.25;50.61
56040;BME280;43937;41.366;2.072;2023-04-29T05:19:26;100404.19;;;20.07;50.14
56040;BME280;43937;41.366;2.072;2023-04-29T05:21:52;100444.00;;;20.41;50.59
56040;BME280;43937;41.366;2.072;2023-04-29T05:24:17;100442.34;;;20.40;50.50
56040;BME280;43937;41.366;2.072;2023-04-29T05:26:43;100445.81;;;20.47;50.00
56040;BME280;43937;41.366;2.072;2023-04-29T05:29:09;100456.25;;;20.45;50.63
56040;BME280;43937;41.366;2.072;2023-04-29T05:31:35;100451.97;;;20.49;50.30
56040;BME280;43937;41.366;2.072;2023-04-29T05:34:01;100446.69;;;20.59;50.39
56040;BME280;43937;41.366;2.072;2023-04-29T05:36:27;100460.53;;;20.59;49.94
56040;BME280;43937;41.366;2.072;2023-04-29T05:38:52;100437.69;;;20.52;49.51
56040;BME280;43937;41.366;2.072;2023-04-29T05:41:18;100456.22;;;20.64;49.54
56040;BME280;43937;41.366;2.072;2023-04-29T05:43:43;100475.81;;;20.97;49.14
56040;BME280;43937;41.366;2.072;2023-04-29T05:46:09;100487.91;;;21.32;48.42
56040;BME280;43937;41.366;2.072;2023-04-29T05:48:34;100487.66;;;21.45;47.83
56040;BME280;43937;41.366;2.072;2023-04-29T05:51:00;100483.66;;;21.53;47.61
56040;BME280;43937;41.366;2.072;2023-04-29T05:53:26;100479.31;;;21.57;47.22
56040;BME280;43937;41.366;2.072;2023-04-29T05:55:51;100499.19;;;21.94;46.78
56040;BME280;43937;41.366;2.072;2023-04-29T05:58:16;100436.28;;;21.66;46.26
56040;BME280;43937;41.366;2.072;2023-04-29T06:00:42;100508.03;;;22.08;46.33
56040;BME280;43937;41.366;2.072;2023-04-29T06:04:53;100507.00;;;23.10;43.96
56040;BME280;43937;41.366;2.072;2023-04-29T06:07:19;100525.00;;;23.90;42.36
56040;BME280;43937;41.366;2.072;2023-04-29T06:09:44;100511.72;;;24.79;42.48
56040;BME280;43937;41.366;2.072;2023-04-29T06:12:10;100506.50;;;25.25;43.77
56040;BME280;43937;41.366;2.072;2023-04-29T06:14:36;100515.19;;;24.59;48.28
56040;BME280;43937;41.366;2.072;2023-04-29T06:17:01;100456.59;;;25.23;48.57
56040;BME280;43937;41.366;2.072;2023-04-29T06:19:28;100502.78;;;25.72;49.25
56040;BME280;43937;41.366;2.072;2023-04-29T06:21:53;100496.78;;;25.90;48.81
56040;BME280;43937;41.366;2.072;2023-04-29T06:24:19;100509.41;;;26.39;49.69
56040;BME280;43937;41.366;2.072;2023-04-29T06:26:44;100517.19;;;27.13;47.86
56040;BME280;43937;41.366;2.072;2023-04-29T06:29:10;100520.38;;;25.77;51.53
56040;BME280;43937;41.366;2.072;2023-04-29T06:31:35;100492.31;;;25.94;51.54
56040;BME280;43937;41.366;2.072;2023-04-29T06:34:06;100521.94;;;25.48;53.02
56040;BME280;43937;41.366;2.072;2023-04-29T06:36:32;100516.81;;;24.92;55.58
56040;BME280;43937;41.366;2.072;2023-04-29T06:38:57;100504.31;;;25.37;53.84
56040;BME280;43937;41.366;2.072;2023-04-29T06:41:22;100526.41;;;25.06;54.64
56040;BME280;43937;41.366;2.072;2023-04-29T06:43:53;100523.06;;;25.52;53.37
56040;BME280;43937;41.366;2.072;2023-04-29T06:46:22;100526.63;;;25.00;55.31
56040;BME280;43937;41.366;2.072;2023-04-29T06:48:47;100525.00;;;25.46;54.07
56040;BME280;43937;41.366;2.072;2023-04-29T06:51:13;100533.97;;;25.58;54.01
56040;BME280;43937;41.366;2.072;2023-04-29T06:53:38;100538.31;;;25.34;54.78
56040;BME280;43937;41.366;2.072;2023-04-29T06:56:04;100533.59;;;25.02;55.40
56040;BME280;43937;41.366;2.072;2023-04-29T06:58:30;100555.56;;;24.61;56.46
56040;BME280;43937;41.366;2.072;2023-04-29T07:00:55;100551.56;;;23.76;59.25
56040;BME280;43937;41.366;2.072;2023-04-29T07:03:21;100564.69;;;24.89;56.39
56040;BME280;43937;41.366;2.072;2023-04-29T07:05:46;100567.72;;;25.62;54.20
56040;BME280;43937;41.366;2.072;2023-04-29T07:08:13;100567.66;;;24.77;55.29
56040;BME280;43937;41.366;2.072;2023-04-29T07:10:39;100567.28;;;25.86;52.77
56040;BME280;43937;41.366;2.072;2023-04-29T07:13:05;100566.66;;;27.33;48.52
56040;BME280;43937;41.366;2.072;2023-04-29T07:15:33;100573.38;;;26.61;50.50
56040;BME280;43937;41.366;2.072;2023-04-29T07:17:59;100566.13;;;26.70;49.82
56040;BME280;43937;41.366;2.072;2023-04-29T07:21:52;100570.09;;;28.50;45.17
56040;BME280;43937;41.366;2.072;2023-04-29T07:24:17;100510.16;;;27.52;46.92
56040;BME280;43937;41.366;2.072;2023-04-29T07:26:43;100563.53;;;29.04;42.95
56040;BME280;43937;41.366;2.072;2023-04-29T07:29:09;100562.75;;;30.80;39.49
56040;BME280;43937;41.366;2.072;2023-04-29T07:31:35;100548.78;;;32.46;36.41
56040;BME280;43937;41.366;2.072;2023-04-29T07:34:00;100571.78;;;33.61;34.80
56040;BME280;43937;41.366;2.072;2023-04-29T07:36:26;100567.78;;;33.30;34.44
56040;BME280;43937;41.366;2.072;2023-04-29T07:38:53;100561.56;;;31.88;36.71
56040;BME280;43937;41.366;2.072;2023-04-29T07:41:18;100542.31;;;30.56;38.77
56040;BME280;43937;41.366;2.072;2023-04-29T07:43:44;100560.53;;;31.57;37.85
56040;BME280;43937;41.366;2.072;2023-04-29T07:46:12;100550.59;;;30.85;37.52
56040;BME280;43937;41.366;2.072;2023-04-29T07:48:38;100575.81;;;30.90;38.21
56040;BME280;43937;41.366;2.072;2023-04-29T07:51:04;100554.25;;;31.32;37.80
56040;BME280;43937;41.366;2.072;2023-04-29T07:53:30;100567.78;;;32.27;35.48
56040;BME280;43937;41.366;2.072;2023-04-29T07:55:56;100560.53;;;31.57;36.15
56040;BME280;43937;41.366;2.072;2023-04-29T07:58:21;100536.59;;;31.13;37.12
56040;BME280;43937;41.366;2.072;2023-04-29T08:00:47;100549.81;;;31.45;36.97
56040;BME280;43937;41.366;2.072;2023-04-29T08:03:12;100573.44;;;31.85;36.07
56040;BME280;43937;41.366;2.072;2023-04-29T08:05:38;100545.53;;;32.03;35.34
56040;BME280;43937;41.366;2.072;2023-04-29T08:08:04;100550.53;;;32.78;33.86
56040;BME280;43937;41.366;2.072;2023-04-29T08:10:30;100563.06;;;31.25;35.98
56040;BME280;43937;41.366;2.072;2023-04-29T08:12:56;100557.50;;;32.81;34.73
56040;BME280;43937;41.366;2.072;2023-04-29T08:15:22;100538.00;;;32.12;35.19
56040;BME280;43937;41.366;2.072;2023-04-29T08:17:47;100564.22;;;32.94;33.60
56040;BME280;43937;41.366;2.072;2023-04-29T08:20:13;100564.22;;;31.24;36.38
56040;BME280;43937;41.366;2.072;2023-04-29T08:24:03;100462.66;;;32.54;33.10
56040;BME280;43937;41.366;2.072;2023-04-29T08:26:30;100567.84;;;33.08;33.72
56040;BME280;43937;41.366;2.072;2023-04-29T08:28:55;100560.63;;;33.24;33.66
56040;BME280;43937;41.366;2.072;2023-04-29T08:31:21;100539.88;;;32.75;33.43
56040;BME280;43937;41.366;2.072;2023-04-29T08:33:47;100555.34;;;32.05;34.63
56040;BME280;43937;41.366;2.072;2023-04-29T08:36:13;100548.16;;;32.35;33.46
56040;BME280;43937;41.366;2.072;2023-04-29T08:38:38;100548.09;;;32.13;34.46
56040;BME280;43937;41.366;2.072;2023-04-29T08:41:06;100555.53;;;30.74;36.39
56040;BME280;43937;41.366;2.072;2023-04-29T08:43:34;100524.06;;;28.66;39.57
56040;BME280;43937;41.366;2.072;2023-04-29T08:46:04;100538.78;;;29.40;38.63
56040;BME280;43937;41.366;2.072;2023-04-29T08:48:31;100527.31;;;29.13;39.51
56040;BME280;43937;41.366;2.072;2023-04-29T08:50:57;100529.19;;;28.15;40.21
56040;BME280;43937;41.366;2.072;2023-04-29T08:53:23;100555.38;;;28.73;40.24
56040;BME280;43937;41.366;2.072;2023-04-29T08:55:49;100554.19;;;29.14;39.61
56040;BME280;43937;41.366;2.072;2023-04-29T08:58:15;100542.38;;;28.88;39.74
56040;BME280;43937;41.366;2.072;2023-04-29T09:00:42;100557.69;;;28.17;40.66
56040;BME280;43937;41.366;2.072;2023-04-29T09:05:40;100569.75;;;28.12;40.97
56040;BME280;43937;41.366;2.072;2023-04-29T09:08:07;100572.09;;;27.90;41.87
56040;BME280;43937;41.366;2.072;2023-04-29T09:10:38;100568.31;;;27.45;41.88
56040;BME280;43937;41.366;2.072;2023-04-29T09:13:06;100583.41;;;27.08;42.65
56040;BME280;43937;41.366;2.072;2023-04-29T09:15:36;100588.13;;;27.58;41.94
56040;BME280;43937;41.366;2.072;2023-04-29T09:18:01;100585.06;;;27.50;42.13
56040;BME280;43937;41.366;2.072;2023-04-29T09:20:28;100596.00;;;27.36;43.11
56040;BME280;43937;41.366;2.072;2023-04-29T09:22:57;100595.16;;;27.40;43.41
56040;BME280;43937;41.366;2.072;2023-04-29T09:25:23;100605.22;;;27.42;43.18
56040;BME280;43937;41.366;2.072;2023-04-29T09:27:48;100610.00;;;27.31;43.76
56040;BME280;43937;41.366;2.072;2023-04-29T09:30:14;100591.81;;;26.77;44.96
56040;BME280;43937;41.366;2.072;2023-04-29T09:32:41;100610.16;;;26.42;47.05
56040;BME280;43937;41.366;2.072;2023-04-29T09:35:27;100600.19;;;27.08;44.92
56040;BME280;43937;41.366;2.072;2023-04-29T09:37:53;100611.94;;;27.00;45.48
56040;BME280;43937;41.366;2.072;2023-04-29T09:40:32;100580.28;;;26.38;46.41
56040;BME280;43937;41.366;2.072;2023-04-29T09:44:08;100606.03;;;26.81;46.51
56040;BME280;43937;41.366;2.072;2023-04-29T09:46:34;100590.16;;;26.97;45.18
56040;BME280;43937;41.366;2.072;2023-04-29T09:49:21;100599.91;;;27.09;45.71
56040;BME280;43937;41.366;2.072;2023-04-29T09:51:52;100599.91;;;27.04;45.00
56040;BME280;43937;41.366;2.072;2023-04-29T09:54:25;100595.44;;;26.72;45.68
56040;BME280;43937;41.366;2.072;2023-04-29T09:56:53;100601.88;;;26.99;44.31
56040;BME280;43937;41.366;2.072;2023-04-29T09:59:19;100590.69;;;27.29;43.44
56040;BME280;43937;41.366;2.072;2023-04-29T10:01:52;100601.03;;;27.29;43.45
56040;BME280;43937;41.366;2.072;2023-04-29T10:04:19;100602.72;;;27.04;43.01
56040;BME280;43937;41.366;2.072;2023-04-29T10:06:47;100594.38;;;27.14;43.16
56040;BME280;43937;41.366;2.072;2023-04-29T10:09:14;100591.81;;;26.92;43.99
56040;BME280;43937;41.366;2.072;2023-04-29T10:12:41;100606.00;;;27.68;44.07
56040;BME280;43937;41.366;2.072;2023-04-29T10:15:38;100604.94;;;27.48;44.84
56040;BME280;43937;41.366;2.072;2023-04-29T10:18:27;100558.56;;;27.37;44.52
56040;BME280;43937;41.366;2.072;2023-04-29T10:20:56;100588.28;;;28.03;43.15
56040;BME280;43937;41.366;2.072;2023-04-29T10:23:23;100569.75;;;27.27;44.31
56040;BME280;43937;41.366;2.072;2023-04-29T10:25:51;100570.31;;;28.14;42.76
56040;BME280;43937;41.366;2.072;2023-04-29T10:28:17;100566.59;;;27.59;43.74
56040;BME280;43937;41.366;2.072;2023-04-29T10:30:44;100584.00;;;27.35;44.43
56040;BME280;43937;41.366;2.072;2023-04-29T10:33:15;100584.53;;;27.02;44.83
56040;BME280;43937;41.366;2.072;2023-04-29T10:35:43;100577.81;;;27.54;44.18
56040;BME280;43937;41.366;2.072;2023-04-29T10:38:18;100586.69;;;27.71;43.75
56040;BME280;43937;41.366;2.072;2023-04-29T10:40:46;100583.25;;;27.95;42.72
56040;BME280;43937;41.366;2.072;2023-04-29T10:43:13;100574.91;;;27.74;44.03
56040;BME280;43937;41.366;2.072;2023-04-29T10:45:39;100584.97;;;27.91;43.12
56040;BME280;43937;41.366;2.072;2023-04-29T10:48:12;100582.88;;;28.17;43.06
56040;BME280;43937;41.366;2.072;2023-04-29T10:55:13;100582.59;;;28.23;42.95
56040;BME280;43937;41.366;2.072;2023-04-29T10:57:39;100581.44;;;28.29;41.70
56040;BME280;43937;41.366;2.072;2023-04-29T11:00:20;100576.00;;;27.94;42.73
56040;BME280;43937;41.366;2.072;2023-04-29T11:02:46;100575.13;;;28.03;42.56
56040;BME280;43937;41.366;2.072;2023-04-29T11:05:12;100564.56;;;27.85;42.47
56040;BME280;43937;41.366;2.072;2023-04-29T11:07:37;100559.97;;;27.19;42.43
56040;BME280;43937;41.366;2.072;2023-04-29T11:10:03;100531.47;;;27.32;43.70
56040;BME280;43937;41.366;2.072;2023-04-29T11:12:28;100555.31;;;27.90;43.98
56040;BME280;43937;41.366;2.072;2023-04-29T11:14:57;100562.03;;;27.94;44.32
56040;BME280;43937;41.366;2.072;2023-04-29T11:17:34;100560.28;;;28.03;44.52
56040;BME280;43937;41.366;2.072;2023-04-29T11:26:35;100565.84;;;26.77;49.09
56040;BME280;43937;41.366;2.072;2023-04-29T11:30:24;100540.44;;;26.93;48.20
56040;BME280;43937;41.366;2.072;2023-04-29T11:32:52;100572.78;;;26.54;50.64
56040;BME280;43937;41.366;2.072;2023-04-29T11:35:18;100568.09;;;26.85;49.66
56040;BME280;43937;41.366;2.072;2023-04-29T11:37:45;100580.38;;;26.63;50.13
56040;BME280;43937;41.366;2.072;2023-04-29T11:40:12;100585.09;;;26.99;49.16
56040;BME280;43937;41.366;2.072;2023-04-29T11:42:44;100574.94;;;27.84;46.97
56040;BME280;43937;41.366;2.072;2023-04-29T11:45:10;100576.19;;;26.76;48.38
56040;BME280;43937;41.366;2.072;2023-04-29T11:48:32;100567.75;;;27.43;47.05
56040;BME280;43937;41.366;2.072;2023-04-29T11:50:58;100571.84;;;27.76;46.46
56040;BME280;43937;41.366;2.072;2023-04-29T11:53:25;100563.84;;;27.49;47.18
56040;BME280;43937;41.366;2.072;2023-04-29T11:55:52;100569.34;;;28.34;44.76
56040;BME280;43937;41.366;2.072;2023-04-29T11:58:23;100561.34;;;28.17;45.69
56040;BME280;43937;41.366;2.072;2023-04-29T12:00:49;100560.72;;;27.60;46.87
56040;BME280;43937;41.366;2.072;2023-04-29T12:03:17;100560.75;;;27.50;46.70
56040;BME280;43937;41.366;2.072;2023-04-29T12:05:53;100564.59;;;27.80;45.31
56040;BME280;43937;41.366;2.072;2023-04-29T12:08:22;100530.63;;;27.11;46.75
56040;BME280;43937;41.366;2.072;2023-04-29T12:10:48;100571.97;;;27.35;47.29
56040;BME280;43937;41.366;2.072;2023-04-29T12:13:18;100573.31;;;27.63;46.18
56040;BME280;43937;41.366;2.072;2023-04-29T12:15:45;100561.06;;;27.23;47.42
56040;BME280;43937;41.366;2.072;2023-04-29T12:18:12;100551.56;;;27.29;47.48
56040;BME280;43937;41.366;2.072;2023-04-29T12:20:38;100547.66;;;27.20;47.60
56040;BME280;43937;41.366;2.072;2023-04-29T12:23:11;100556.53;;;27.53;47.57
56040;BME280;43937;41.366;2.072;2023-04-29T12:25:37;100558.84;;;27.10;47.54
56040;BME280;43937;41.366;2.072;2023-04-29T12:28:03;100570.31;;;27.03;47.83
56040;BME280;43937;41.366;2.072;2023-04-29T12:30:28;100559.41;;;27.12;47.39
56040;BME280;43937;41.366;2.072;2023-04-29T12:32:54;100569.19;;;26.89;47.39
56040;BME280;43937;41.366;2.072;2023-04-29T12:35:20;100568.91;;;26.55;48.32
56040;BME280;43937;41.366;2.072;2023-04-29T12:37:49;100551.63;;;26.63;48.57
56040;BME280;43937;41.366;2.072;2023-04-29T12:40:16;100561.94;;;27.03;47.50
56040;BME280;43937;41.366;2.072;2023-04-29T12:42:42;100571.69;;;27.11;47.75
56040;BME280;43937;41.366;2.072;2023-04-29T12:45:31;100558.84;;;27.25;47.23
56040;BME280;43937;41.366;2.072;2023-04-29T12:47:57;100563.81;;;26.41;48.18
56040;BME280;43937;41.366;2.072;2023-04-29T12:50:30;100567.50;;;26.78;47.10
56040;BME280;43937;41.366;2.072;2023-04-29T12:52:57;100574.22;;;26.82;47.37
56040;BME280;43937;41.366;2.072;2023-04-29T12:55:23;100569.47;;;26.98;47.12
56040;BME280;43937;41.366;2.072;2023-04-29T12:57:48;100552.19;;;26.75;46.87
56040;BME280;43937;41.366;2.072;2023-04-29T13:00:14;100553.84;;;26.66;46.44
56040;BME280;43937;41.366;2.072;2023-04-29T13:02:40;100554.75;;;25.88;49.46
56040;BME280;43937;41.366;2.072;2023-04-29T13:05:06;100562.66;;;26.22;49.23
56040;BME280;43937;41.366;2.072;2023-04-29T13:09:17;100560.53;;;26.60;48.67
56040;BME280;43937;41.366;2.072;2023-04-29T13:11:42;100558.31;;;26.82;48.12
56040;BME280;43937;41.366;2.072;2023-04-29T13:14:08;100545.06;;;26.11;49.07
56040;BME280;43937;41.366;2.072;2023-04-29T13:16:33;100522.84;;;26.67;47.93
56040;BME280;43937;41.366;2.072;2023-04-29T13:19:00;100556.34;;;26.98;47.06
56040;BME280;43937;41.366;2.072;2023-04-29T13:21:26;100548.53;;;27.00;47.76
56040;BME280;43937;41.366;2.072;2023-04-29T13:23:56;100557.38;;;26.20;50.12
56040;BME280;43937;41.366;2.072;2023-04-29T13:26:21;100545.19;;;26.72;48.17
56040;BME280;43937;41.366;2.072;2023-04-29T13:28:49;100541.53;;;27.03;47.31
56040;BME280;43937;41.366;2.072;2023-04-29T13:31:15;100528.63;;;27.37;46.84
56040;BME280;43937;41.366;2.072;2023-04-29T13:33:40;100557.75;;;27.06;47.48